Airfield :
LOGIN :

Register | Disclaimer

   EN    FR    IT 

 










Legend :    VFR   Marginal VFR   IFR   Intensive IFR   Very Intensive IFR
Visi :
Ceiling :
>= 8 km
>= 3000ft
5 to 8 km
1000 to 3000 ft
1500m to 5 km
500 to 1000 ft
800 to 1500m
200 to 500 ft
< 800m
< 200 ft
Symbols :   Thunderstorms  Fog  Heavy snow  Heavy precipitations  Wind > 20 kt
SIGMETs :     Misc.  Thunderstorms  Icing  Turbulence  Mountain Waves  Volcanic Ashes







- Airport Elevation : 69 ft
- IATA code : AES


ENAL - Ålesund

CURRENT METAR :
  • 210320Z AUTO 21012KT 9999 FEW014/// BKN035/// OVC046/// 10/07 Q0994

EXPIRED METARs :
  • 210250Z AUTO 21011KT 9999 OVC037/// 11/07 Q0994
  • 210220Z AUTO 20012KT 9999 FEW027/// OVC038/// 11/07 Q0994
  • 210150Z AUTO 22017KT 9999 SCT046/// BKN059/// 11/07 Q0995
  • 210120Z AUTO 23018KT 9999 FEW033/// SCT051/// 11/06 Q0995
  • 210050Z AUTO 23020KT 9999 SCT044/// BKN059/// 11/05 Q0995

TAF TAF ENAL
Valid from the 21 at 03:00 until the 21 at 12:00 UTC


210200Z 2103/2112 20012KT 9999 FEW025 BKN040
BECMG 2105/2107 14007KT
BECMG 2108/2110 05015KT
No reported NOTAMs for that airfield.
1 SIGMET reported for the Norway FIR (ENOR) :
 
Severe turbulence
ENBD SIGMET D01 VALID 210200/210600 ENVN
ENOR NORWAY FIR SEV TURB FCST WI N6840 E01835 - N6740 E01520 - N6745 E01230 - N6940 E01640 - N6840 E01835 SFC/FL130 STNR WKN=



MET'MAP, your aeronautical weather chart ! - Copyright ORBIFLY December 2007 - Disclaimer

ORBIFLY MET'MAP TEAM :

Programming & Development : Alexandra Zaïnal
Concept & Development : Baudouin d'Aumeries
Co-Development & Prog : Marc-Olivier Méhu
Technical & hardware support : Manuel Goepfert

Contact : metmap@orbifly.com




SOURCES & CREDITS :

   NOAA